Flight Track Log - Related Links

Times and Time Zones

All times are in EDT time to prevent confusion due to time zone crossing. See the N589H flight status page for this flight to view local times or setup timezone preferences in your user account.

Time Position Orientation Groundspeed Altitude Reporting Facility
EDT Latitude Longitude Course Direction KTS MPH feet Rate Location/Type
Thu 08:12:02 AM 27.9333 -82.6833 270° West 149 171 600  Level Tampa TRACON
Thu 08:12:32 AM 27.9333 -82.7167 312° West 169 194 1,300 1,563 Climbing Tampa TRACON
Thu 08:13:38 AM 27.9167 -82.7500 241° Southwest 189 217 3,100 1,750 Climbing Tampa TRACON
Thu 08:14:32 AM 27.8667 -82.7500 180° South 168 193 4,800 1,826 Climbing Tampa TRACON
Thu 08:15:33 AM 27.8167 -82.7500 180° South 189 217 6,600 1,700 Climbing Tampa TRACON
Thu 08:16:32 AM 27.7667 -82.7333 164° South 209 241 8,200 1,815 Climbing Tampa TRACON
Thu 08:17:32 AM 27.7000 -82.7167 168° South 218 251 10,200 1,400 Climbing Tampa TRACON
Thu 08:18:32 AM 27.6500 -82.6833 149° Southeast 244 281 11,000 397 Climbing Tampa TRACON
Thu 08:19:33 AM 27.5667 -82.6500 160° South 312 359 11,000  Level Tampa TRACON
Thu 08:20:33 AM 27.5000 -82.6000 146° Southeast 323 372 11,000  Level Tampa TRACON
Thu 08:21:27 AM 27.4333 -82.5333 138° Southeast 313 360 11,000 -34 Level Tampa TRACON
Thu 08:23:29 AM 27.3222 -82.4075 135° Southeast 303 349 10,900 -33 Descending Miami Center
Thu 08:24:30 AM 27.2625 -82.3414 135° Southeast 303 349 10,900 98 Level Miami Center
Thu 08:25:32 AM 27.1894 -82.2642 137° Southeast 303 349 11,100 48 Climbing Miami Center
Thu 08:26:34 AM 27.1119 -82.2311 159° South 305 351 11,000 -49 Descending Miami Center
Thu 08:27:35 AM 27.0350 -82.1950 157° South 302 348 11,000 -244 Level Miami Center
Thu 08:28:37 AM 26.9486 -82.1533 157° South 308 354 10,500 -484 Descending Miami Center
Thu 08:29:39 AM 26.8714 -82.1164 157° South 305 351 10,000 -726 Descending Miami Center
Thu 08:30:41 AM 26.7903 -82.0781 157° South 296 341 9,000 -1,463 Descending Miami Center
Thu 08:31:42 AM 26.7161 -82.0425 157° South 296 341 7,000 -1,951 Descending Miami Center
Thu 08:32:44 AM 26.6439 -82.0081 157° South 263 303 5,000 -968 Descending Miami Center
Thu 08:33:46 AM 26.5819 -81.9783 157° South 250 288 5,000  Level Miami Center
Thu 08:34:47 AM 26.5111 -81.9442 157° South 256 295 5,000 -244 Level Miami Center
Thu 08:35:49 AM 26.4453 -81.9131 157° South 259 298 4,500 -968 Descending Miami Center
Thu 08:36:51 AM 26.3761 -81.8811 158° South 253 291 3,000 -726 Descending Miami Center
Thu 08:37:53 AM 26.3142 -81.8517 157° South 246 283 3,000 -293 Level Miami Center
Thu 08:38:54 AM 26.2383 -81.8347 169° South 259 298 2,400 -683 Descending Miami Center
Thu 08:39:56 AM 26.1869 -81.8250 170° South 191 220 1,600 -629 Descending Miami Center
Thu 08:40:58 AM 26.1467 -81.8214 175° South 138 159 1,100 -629 Descending Miami Center
Thu 08:42:00 AM 26.1361 -81.7922 112° Southeast 116 133 300 -439 Descending Miami Center
Thu 08:43:01 AM 26.1558 -81.7678 48° Northeast 115 132 200 -98 Descending Miami Center

Login

Don't have an account? Register now (free) for customized features, flight alerts, and more!